• Join FlightAware (Why Join?)
  • Login
  • US Flag 
12:12PM EST


 

Airport Tracker/Info


-or-


 

Live Flight TrackerFlight Track Log ✈ GJS3710 ✈ 24-May-2013 ✈ KDEN - KSTL

Flight Track Log - Related Links

Times and Time Zones

All times are in EDT time to prevent confusion due to time zone crossing. See the GJS3710 flight status page for this flight to view local times or setup timezone preferences in your user account.

Time Position Orientation Groundspeed Altitude Reporting Facility
EDT Latitude Longitude Course Direction KTS MPH feet Rate Location/Type
02:57PM 39.8017 -104.6303 95° East 181 208 7,300  Level Denver Center
02:58PM 39.7658 -104.5633 125° Southeast 235 270 9,000 1,260 Climbing Denver Center
02:59PM 39.7678 -104.4544 89° East 281 323 10,000 1,380 Climbing Denver Center
03:00PM 39.7667 -104.0395 90° East  Level FlightAware Approximate
03:00PM 39.7686 -104.3483 89° East 293 337 11,900  Level Denver Center
03:01PM 39.7592 -103.8811 100° East  Level FlightAware Approximate
03:01PM 39.7669 -104.2256 91° East 315 362 14,200  Level Denver Center
03:02PM 39.7317 -103.7265 95° East  Level FlightAware Approximate
03:03PM 39.7204 -103.5680 95° East  Level FlightAware Approximate
03:03PM 39.7658 -104.1056 91° East 332 382 16,200  Level Denver Center
03:04PM 39.7636 -103.9497 91° East 351 404 18,100 1,740 Climbing Denver Center
03:05PM 39.7483 -103.8025 98° East 379 436 19,900 1,260 Climbing Denver Center
03:06PM 39.7353 -103.6653 97° East 401 461 20,800 960 Climbing Denver Center
03:07PM 39.7211 -103.4947 96° East 416 479 22,000 1,200 Climbing Denver Center
03:08PM 39.7081 -103.3214 96° East 445 512 23,300 1,140 Climbing Denver Center
03:09PM 39.6944 -103.1617 96° East 460 529 24,400 1,200 Climbing Denver Center
03:10PM 39.6797 -102.9767 96° East 463 533 25,800 1,200 Climbing Denver Center
03:11PM 39.6656 -102.8192 97° East 461 531 26,900 1,080 Climbing Denver Center
03:12PM 39.6497 -102.6350 96° East 461 531 28,100 1,020 Climbing Denver Center
03:13PM 39.6361 -102.4758 96° East 464 534 29,100 960 Climbing Denver Center
03:14PM 39.6192 -102.2869 97° East 471 542 30,200 960 Climbing Denver Center
03:15PM 39.6039 -102.1269 97° East 470 541 31,200 960 Climbing Denver Center
03:16PM 39.5872 -101.9386 96° East 471 542 32,200 840 Climbing Denver Center
03:17PM 39.5758 -101.7758 95° East 474 545 33,000 780 Climbing Denver Center
03:18PM 39.5608 -101.5867 96° East 473 544 33,900 720 Climbing Denver Center
03:19PM 39.5458 -101.4228 97° East 478 550 34,600 720 Climbing Denver Center
03:20PM 39.5189 -101.2336 100° East 480 552 35,500 780 Climbing Denver Center
03:21PM 39.4950 -101.0714 101° East 480 552 36,300 720 Climbing Denver Center
03:22PM 39.4711 -100.9097 101° East 480 552 37,000 300 Climbing Denver Center
03:23PM 39.4419 -100.7206 101° East 481 554 37,000  Level Denver Center
03:24PM 39.4167 -100.5517 101° East 494 568 37,000 240 Level Denver Center
03:25PM 39.3858 -100.3533 101° East 503 579 37,500 540 Climbing Denver Center
03:27PM 39.3600 -100.1850 101° East 502 578 38,200 720 Climbing Denver Center
03:28PM 39.3294 -99.9969 102° East 486 559 39,000 360 Climbing Denver Center
03:29PM 39.3031 -99.8331 102° East 485 558 39,000  Level Denver Center
03:30PM 39.2719 -99.6392 102° East 494 568 39,000  Level Denver Center
03:31PM 39.2447 -99.4700 102° East 501 577 39,000  Level Denver Center
03:32PM 39.2200 -99.2703 99° East 507 583 39,000  Level Denver Center
03:33PM 39.2192 -99.0958 90° East 511 588 39,000  Level Denver Center
03:34PM 39.2178 -98.9056 90° East 507 583 39,000  Level Denver Center
03:35PM 39.2158 -98.6950 91° East 503 579 39,000  Level Kansas City Center
03:36PM 39.2156 -98.5053 90° East 509 586 39,000  Level Kansas City Center
03:37PM 39.2142 -98.3136 90° East 509 586 39,000  Level Kansas City Center
03:38PM 39.2122 -98.1311 91° East 508 585 39,000  Level Kansas City Center
03:39PM 39.2094 -97.9467 91° East 512 589 39,000  Level Kansas City Center
03:40PM 39.2069 -97.7319 91° East 512 589 39,000  Level Kansas City Center
03:41PM 39.2036 -97.5569 91° East 509 586 39,000  Level Kansas City Center
03:42PM 39.2003 -97.3503 91° East 515 593 39,000  Level Kansas City Center
03:43PM 39.1969 -97.1736 91° East 515 593 39,000  Level Kansas City Center
03:44PM 39.1942 -96.9692 91° East 512 589 39,000  Level Kansas City Center
03:45PM 39.1894 -96.7917 92° East 517 595 39,000  Level Kansas City Center
03:46PM 39.1844 -96.6139 92° East 519 597 39,000  Level Kansas City Center
03:47PM 39.1783 -96.4050 92° East 522 601 39,000  Level Kansas City Center
03:48PM 39.1728 -96.2272 92° East 521 600 39,000  Level Kansas City Center
03:49PM 39.1672 -96.0194 92° East 520 598 39,000  Level Kansas City Center
03:50PM 39.1611 -95.8419 92° East 520 598 39,000  Level Kansas City Center
03:52PM 39.1558 -95.6347 92° East 519 597 39,000  Level Kansas City Center
03:53PM 39.1486 -95.4442 93° East 520 598 39,000  Level Kansas City Center
03:54PM 39.1411 -95.2442 93° East 523 602 39,000  Level Kansas City Center
03:55PM 39.1333 -95.0514 93° East 523 602 39,000  Level Kansas City Center
03:56PM 39.1267 -94.8750 93° East 520 598 39,000  Level Kansas City Center
03:57PM 39.1169 -94.6667 93° East 524 603 39,000  Level Kansas City Center
03:58PM 39.1108 -94.4897 92° East 519 597 39,000  Level Kansas City Center
03:59PM 39.1014 -94.2833 93° East 517 595 39,000  Level Kansas City Center
04:00PM 39.0914 -94.1061 94° East 518 596 39,000 -300 Level Kansas City Center
04:01PM 39.0617 -93.9314 102° East 521 600 38,400 -840 Descending Kansas City Center
04:02PM 39.0292 -93.7283 102° East 520 598 37,300 -1,080 Descending Kansas City Center
04:03PM 39.0003 -93.5319 101° East 516 594 36,200 -1,260 Descending Kansas City Center
04:04PM 38.9728 -93.3564 101° East 508 585 34,700 -1,500 Descending Kansas City Center
04:05PM 38.9417 -93.1861 103° East 499 574 33,200 -1,500 Descending Kansas City Center
04:06PM 38.9133 -93.0153 102° East 491 565 31,700 -1,500 Descending Kansas City Center
04:07PM 38.8833 -92.8439 103° East 491 565 30,200 -1,500 Descending Kansas City Center
04:08PM 38.8544 -92.6717 102° East 492 566 28,600 -1,680 Descending Kansas City Center
04:09PM 38.8261 -92.5036 102° East 484 557 26,800 -1,920 Descending Kansas City Center
04:10PM 38.7936 -92.3133 102° East 464 534 24,700 -1,980 Descending Kansas City Center
04:11PM 38.7675 -92.1692 103° East 427 491 22,800 -1,800 Descending Kansas City Center
04:12PM 38.7425 -92.0258 103° East 414 476 21,000 -1,740 Descending Kansas City Center
04:13PM 38.7167 -91.8839 103° East 409 471 19,300 -1,500 Descending Kansas City Center
04:14PM 38.6925 -91.7450 103° East 401 461 18,000 -1,500 Descending Kansas City Center
04:15PM 38.6933 -91.6094 90° East 380 437 16,300 -1,620 Descending Kansas City Center
04:16PM 38.6919 -91.4750 91° East 378 435 14,700 -1,620 Descending Kansas City Center
04:17PM 38.6931 -91.3467 89° East 370 426 13,000 -1,740 Descending Kansas City Center
04:18PM 38.6942 -91.1969 89° East 360 414 11,200 -1,500 Descending Kansas City Center
04:19PM 38.7064 -91.0869 82° East 333 383 10,000 -1,320 Descending Kansas City Center
04:20PM 38.7247 -90.9886 77° East 301 346 8,500 -1,500 Descending Kansas City Center
04:21PM 38.7425 -90.8936 76° East 287 330 7,000 -900 Descending Kansas City Center
04:23PM 38.7586 -90.8031 77° East 273 314 6,700 -720 Descending Kansas City Center
04:24PM 38.7742 -90.7167 77° East 261 300 5,600 -1,200 Descending Kansas City Center
04:25PM 38.7889 -90.6342 77° East 218 251 4,300 -1,260 Descending Kansas City Center
04:26PM 38.8008 -90.5733 76° East 190 219 3,100 -900 Descending Kansas City Center
04:27PM 38.8111 -90.5167 77° East 183 211 2,500 -600 Descending Kansas City Center